Time;durP1;ratioP1;P1;durP2;ratioP2;P2;SDS_P1;SDS_P2;PMS_P1;PMS_P2;Temp;Humidity;BMP_temperature;BMP_pressure;BME280_temperature;BME280_humidity;BME280_pressure;Samples;Min_cycle;Max_cycle;Signal;HPM_P1;HPM_P2
2022/09/02 00:02:30;;;;;;;8.53;3.50;;;;;;;19.27;45.58;100678.55;124799;1099;103598;-77
2022/09/02 00:05:01;;;;;;;8.40;3.77;;;;;;;19.27;45.82;100686.53;124726;1099;104166;-77
2022/09/02 00:07:32;;;;;;;8.70;3.77;;;;;;;19.24;45.34;100688.30;124758;1098;104364;-77
2022/09/02 00:10:03;;;;;;;10.20;3.50;;;;;;;19.21;45.47;100682.11;124780;1099;104238;-77
2022/09/02 00:12:34;;;;;;;9.37;3.70;;;;;;;19.20;45.40;100685.64;124804;1099;102937;-77
2022/09/02 00:15:07;;;;;;;7.57;3.17;;;;;;;19.21;46.09;100689.17;124818;1099;104162;-77
2022/09/02 00:17:38;;;;;;;7.03;3.77;;;;;;;19.19;45.90;100686.51;124779;1099;102839;-77
2022/09/02 00:20:11;;;;;;;8.37;3.57;;;;;;;19.21;45.79;100689.17;124756;1099;104252;-78
2022/09/02 00:22:42;;;;;;;8.23;3.87;;;;;;;19.16;45.89;100674.98;124871;1099;102825;-77
2022/09/02 00:25:14;;;;;;;12.00;4.17;;;;;;;19.25;46.14;100685.66;124750;1099;104221;-78
2022/09/02 00:27:48;;;;;;;6.45;3.25;;;;;;;19.22;46.39;100691.84;124740;1099;104339;-77
2022/09/02 00:30:19;;;;;;;7.03;3.40;;;;;;;19.22;46.28;100701.60;124770;1099;104388;-77
2022/09/02 00:32:51;;;;;;;11.80;3.77;;;;;;;19.20;46.09;100711.36;124743;1099;104184;-77
2022/09/02 00:35:22;;;;;;;9.43;3.80;;;;;;;19.17;46.07;100706.91;124747;1098;104229;-77
2022/09/02 00:37:54;;;;;;;9.87;3.80;;;;;;;19.14;46.46;100698.91;124762;1099;104209;-76
2022/09/02 00:40:26;;;;;;;8.23;3.70;;;;;;;19.11;46.31;100695.36;124751;1099;104267;-77
2022/09/02 00:42:57;;;;;;;8.60;3.90;;;;;;;19.10;46.25;100698.89;124726;1099;104217;-77
2022/09/02 00:45:28;;;;;;;19.77;4.30;;;;;;;19.08;46.68;100708.65;124713;1099;104208;-77
2022/09/02 00:48:00;;;;;;;10.07;4.07;;;;;;;19.07;46.67;100718.37;124731;1099;104220;-76
2022/09/02 00:50:34;;;;;;;12.23;3.90;;;;;;;19.09;46.52;100721.04;124818;1099;104605;-76
2022/09/02 00:53:09;;;;;;;11.00;3.90;;;;;;;19.07;46.46;100718.37;124756;1099;104194;-76
2022/09/02 00:55:44;;;;;;;8.33;3.93;;;;;;;19.06;46.46;100724.59;124823;1099;104192;-77
2022/09/02 00:58:20;;;;;;;10.53;3.80;;;;;;;19.07;46.99;100717.50;124779;1099;104169;-77
2022/09/02 01:00:55;;;;;;;7.47;3.30;;;;;;;19.07;46.98;100720.16;124804;1099;104651;-77
2022/09/02 01:03:31;;;;;;;10.67;3.50;;;;;;;19.06;46.89;100721.03;124692;1099;103060;-78
2022/09/02 01:06:03;;;;;;;9.53;3.43;;;;;;;19.04;46.91;100721.93;124867;1099;104204;-77
2022/09/02 01:08:38;;;;;;;10.73;3.97;;;;;;;19.03;46.52;100708.63;124790;1099;104172;-77
2022/09/02 01:11:09;;;;;;;7.37;3.40;;;;;;;19.00;46.75;100701.52;124793;1099;104082;-77
2022/09/02 01:13:44;;;;;;;9.33;3.50;;;;;;;18.98;46.83;100697.97;124818;1099;104237;-77
2022/09/02 01:16:23;;;;;;;8.07;3.60;;;;;;;18.96;46.65;100701.49;124812;1099;102842;-77
2022/09/02 01:18:58;;;;;;;8.70;3.53;;;;;;;18.91;47.02;100693.49;124746;1099;104272;-77
2022/09/02 01:21:29;;;;;;;8.53;3.80;;;;;;;18.88;47.19;100701.45;124755;1099;104297;-77
2022/09/02 01:24:01;;;;;;;11.13;3.70;;;;;;;18.84;47.06;100705.88;124664;1099;102228;-78
2022/09/02 01:26:32;;;;;;;;;;;;;;;18.81;47.02;100721.78;124713;1099;102233;-77
2022/09/02 01:29:03;;;;;;;6.67;3.20;;;;;;;18.80;47.15;100717.33;124773;1099;102953;-77
2022/09/02 01:31:34;;;;;;;10.23;3.40;;;;;;;18.79;47.02;100722.64;124758;1099;104374;-77
2022/09/02 01:34:06;;;;;;;7.57;3.40;;;;;;;18.80;46.80;100727.97;124740;1099;104111;-77
2022/09/02 01:36:40;;;;;;;10.83;4.23;;;;;;;18.81;46.94;100736.85;124741;1099;104235;-77
2022/09/02 01:39:12;;;;;;;9.63;3.90;;;;;;;18.79;47.11;100742.16;124807;1099;102753;-77
2022/09/02 01:41:44;;;;;;;12.57;3.50;;;;;;;18.77;47.11;100746.55;124810;1099;104156;-77
2022/09/02 01:44:16;;;;;;;10.77;3.83;;;;;;;18.77;47.06;100751.00;124737;1098;102688;-77
2022/09/02 01:46:51;;;;;;;8.27;3.80;;;;;;;18.76;47.21;100741.23;124761;1099;104236;-76
2022/09/02 01:49:22;;;;;;;7.10;3.70;;;;;;;18.78;46.98;100747.47;124746;1099;104236;-76
2022/09/02 01:51:55;;;;;;;8.70;3.70;;;;;;;18.76;47.50;100738.58;124773;1098;104217;-76
2022/09/02 01:54:28;;;;;;;9.58;3.95;;;;;;;18.75;47.21;100742.13;124798;1098;104181;-77
2022/09/02 01:56:59;;;;;;;7.87;3.40;;;;;;;18.74;47.04;100746.53;124731;1099;104179;-77
2022/09/02 01:59:31;;;;;;;8.30;3.70;;;;;;;18.75;47.07;100740.35;124782;1099;104320;-77
2022/09/02 02:02:03;;;;;;;7.23;3.57;;;;;;;18.73;47.00;100744.78;124766;1099;102859;-76
2022/09/02 02:04:34;;;;;;;9.57;3.53;;;;;;;18.72;47.26;100750.09;124687;1099;104249;-76
2022/09/02 02:07:08;;;;;;;9.90;3.80;;;;;;;18.72;47.09;100747.43;124773;1099;102969;-77
2022/09/02 02:09:39;;;;;;;9.03;3.47;;;;;;;18.72;47.15;100752.75;124675;1099;104329;-77
2022/09/02 02:12:11;;;;;;;10.80;3.63;;;;;;;18.72;47.57;100753.62;124768;1099;104169;-76
2022/09/02 02:14:43;;;;;;;9.50;3.33;;;;;;;18.73;46.88;100743.88;124796;1099;102012;-77
2022/09/02 02:17:14;;;;;;;8.67;3.33;;;;;;;18.74;47.42;100757.17;124822;1099;104309;-77
2022/09/02 02:19:46;;;;;;;6.07;3.53;;;;;;;18.74;47.36;100758.95;124815;1099;102150;-76
2022/09/02 02:22:17;;;;;;;7.30;3.70;;;;;;;18.73;47.44;100758.07;124788;1099;103251;-77
2022/09/02 02:24:48;;;;;;;8.77;3.53;;;;;;;18.73;47.50;100765.13;124729;1099;104284;-77
2022/09/02 02:27:19;;;;;;;9.63;3.63;;;;;;;18.74;47.41;100764.27;124729;1099;104318;-78
2022/09/02 02:29:52;;;;;;;8.07;3.80;;;;;;;18.75;47.14;100761.62;124743;1099;104224;-77
2022/09/02 02:32:25;;;;;;;10.13;4.13;;;;;;;18.74;47.58;100765.14;124759;1099;103236;-77
2022/09/02 02:34:59;;;;;;;10.13;4.27;;;;;;;18.73;47.37;100775.77;124680;1099;104421;-77
2022/09/02 02:37:31;;;;;;;9.97;4.00;;;;;;;18.72;47.55;100774.02;124715;1099;104232;-77
2022/09/02 02:40:03;;;;;;;9.30;3.93;;;;;;;18.70;47.42;100779.31;124709;1098;102672;-77
2022/09/02 02:42:35;;;;;;;10.73;4.10;;;;;;;18.68;47.80;100773.99;124826;1099;102756;-77
2022/09/02 02:45:08;;;;;;;7.40;4.27;;;;;;;18.68;47.65;100781.96;124699;1099;104223;-77
2022/09/02 02:47:39;;;;;;;;;;;;;;;18.65;47.51;100789.00;125870;1098;101940;-77
2022/09/02 02:50:14;;;;;;;8.27;3.70;;;;;;;18.62;47.66;100787.23;124737;1099;104268;-77
2022/09/02 02:52:46;;;;;;;10.07;4.17;;;;;;;18.59;47.57;100779.23;124709;1099;104230;-77
2022/09/02 02:55:18;;;;;;;10.17;4.33;;;;;;;18.58;47.88;100777.45;124747;1099;104150;-77
2022/09/02 02:57:50;;;;;;;8.10;4.00;;;;;;;18.58;48.03;100782.77;124798;1099;104275;-77
2022/09/02 03:00:25;;;;;;;9.87;4.20;;;;;;;18.57;47.81;100780.97;124771;1099;104446;-77
2022/09/02 03:02:59;;;;;;;10.83;4.10;;;;;;;18.58;48.06;100779.23;124837;1099;104179;-77
2022/09/02 03:05:29;;;;;;;;;;;;;;;18.58;47.99;100781.88;124794;1098;104281;-77
2022/09/02 03:08:01;;;;;;;14.00;4.03;;;;;;;18.61;48.29;100785.45;124756;1099;104226;-77
2022/09/02 03:10:34;;;;;;;9.83;4.43;;;;;;;18.65;48.19;100783.69;124742;1099;104188;-77
2022/09/02 03:13:06;;;;;;;9.30;4.07;;;;;;;18.64;47.88;100788.12;124786;1099;104226;-78
2022/09/02 03:15:38;;;;;;;10.57;4.60;;;;;;;18.64;48.31;100793.44;124685;1098;104233;-77
2022/09/02 03:18:09;;;;;;;9.63;4.00;;;;;;;18.66;48.57;100796.11;124820;1098;104159;-78
2022/09/02 03:20:42;;;;;;;8.35;3.70;;;;;;;18.66;47.82;100796.98;124753;1099;104179;-77
2022/09/02 03:23:14;;;;;;;9.10;3.90;;;;;;;18.65;48.00;100794.31;124752;1099;104175;-78
2022/09/02 03:25:48;;;;;;;9.77;3.90;;;;;;;18.64;48.21;100792.56;124665;1099;104038;-77
2022/09/02 03:28:26;;;;;;;12.17;3.67;;;;;;;18.63;48.08;100794.30;124811;1099;104205;-77
2022/09/02 03:30:58;;;;;;;11.73;3.77;;;;;;;18.60;48.15;100796.94;124689;1099;104149;-77
2022/09/02 03:33:29;;;;;;;7.80;4.00;;;;;;;18.59;48.10;100808.47;124702;1099;102854;-77
2022/09/02 03:36:01;;;;;;;8.60;3.80;;;;;;;18.57;48.00;100812.86;125913;1098;102827;-77
2022/09/02 03:38:32;;;;;;;9.67;3.77;;;;;;;18.57;47.89;100817.30;124647;1099;104252;-77
2022/09/02 03:41:07;;;;;;;8.97;3.90;;;;;;;18.56;48.40;100804.88;124661;1099;104159;-77
2022/09/02 03:43:38;;;;;;;8.70;3.90;;;;;;;18.55;48.37;100809.31;124819;1099;102772;-77
2022/09/02 03:46:10;;;;;;;11.03;4.33;;;;;;;18.56;48.76;100805.79;124834;1099;104296;-77
2022/09/02 03:48:41;;;;;;;13.93;4.10;;;;;;;18.58;48.73;100806.68;124802;1098;102871;-77
2022/09/02 03:51:14;;;;;;;8.55;3.98;;;;;;;18.59;48.23;100804.90;124696;1099;104268;-78
2022/09/02 03:53:45;;;;;;;10.80;4.03;;;;;;;18.58;48.64;100806.68;124813;1099;104590;-78
2022/09/02 03:56:18;;;;;;;10.93;4.40;;;;;;;18.60;48.54;100802.25;124781;1099;104195;-78
2022/09/02 03:58:50;;;;;;;7.87;4.10;;;;;;;18.60;48.19;100804.03;124820;1098;104245;-77
2022/09/02 04:01:25;;;;;;;8.50;4.10;;;;;;;18.59;48.45;100805.81;124692;1099;102975;-78
2022/09/02 04:03:56;;;;;;;19.73;4.35;;;;;;;18.60;48.40;100804.91;124770;1099;104156;-78
2022/09/02 04:06:28;;;;;;;12.17;4.53;;;;;;;18.59;48.44;100811.13;124643;1099;104325;-77
2022/09/02 04:08:59;;;;;;;10.37;4.13;;;;;;;18.62;48.38;100816.47;124756;1099;104201;-78
2022/09/02 04:11:30;;;;;;;18.53;5.27;;;;;;;18.63;48.63;100818.22;124838;1099;104249;-78
2022/09/02 04:14:03;;;;;;;13.07;4.30;;;;;;;18.67;48.94;100821.82;124715;1099;104297;-78
2022/09/02 04:16:35;;;;;;;35.03;5.70;;;;;;;18.66;48.76;100828.00;124714;1099;104226;-76
2022/09/02 04:19:09;;;;;;;12.13;3.90;;;;;;;18.64;48.29;100829.77;124745;1099;104393;-77
2022/09/02 04:21:42;;;;;;;8.70;3.90;;;;;;;18.61;48.03;100837.72;124791;1099;104300;-77
2022/09/02 04:24:14;;;;;;;15.60;4.80;;;;;;;18.60;48.22;100841.24;124810;1099;104172;-77
2022/09/02 04:26:50;;;;;;;20.47;4.37;;;;;;;18.62;48.47;100843.05;124898;1099;104261;-78
2022/09/02 04:29:23;;;;;;;20.03;4.80;;;;;;;18.63;48.72;100839.48;124811;1099;104287;-77
2022/09/02 04:31:54;;;;;;;19.40;4.67;;;;;;;18.64;48.82;100846.59;124778;1099;104168;-77
2022/09/02 04:34:26;;;;;;;10.47;4.00;;;;;;;18.65;48.55;100843.07;124791;1099;104153;-77
2022/09/02 04:36:59;;;;;;;15.60;5.37;;;;;;;18.62;48.38;100845.70;124751;1099;104197;-77
2022/09/02 04:39:30;;;;;;;9.93;4.63;;;;;;;18.60;48.32;100850.09;124821;1099;104759;-77
2022/09/02 04:42:02;;;;;;;12.20;4.20;;;;;;;18.58;48.53;100856.30;124677;1099;104380;-77
2022/09/02 04:44:35;;;;;;;14.10;4.43;;;;;;;18.59;48.32;100860.70;124778;1099;104179;-77
2022/09/02 04:47:06;;;;;;;19.30;4.33;;;;;;;18.58;48.35;100857.17;124733;1099;102444;-77
2022/09/02 04:49:38;;;;;;;13.47;4.60;;;;;;;18.58;48.19;100857.17;124716;1099;102253;-77
2022/09/02 04:52:09;;;;;;;14.30;4.70;;;;;;;18.54;48.30;100854.48;124749;1099;104201;-78
2022/09/02 04:54:41;;;;;;;18.73;5.00;;;;;;;18.56;48.39;100858.94;124786;1099;104236;-77
2022/09/02 04:57:13;;;;;;;13.87;4.40;;;;;;;18.58;48.31;100858.95;124831;1099;102746;-77
2022/09/02 04:59:44;;;;;;;23.43;5.23;;;;;;;18.52;48.71;100849.14;124721;1099;104275;-77
2022/09/02 05:02:18;;;;;;;25.10;5.07;;;;;;;18.62;49.08;100874.94;124762;1099;104169;-77
2022/09/02 05:04:49;;;;;;;;;;;;;;;18.59;48.44;100868.69;124867;1099;104300;-77
2022/09/02 05:07:26;;;;;;;;;;;;;;;18.58;48.28;100877.55;124746;1099;102514;-78
2022/09/02 05:10:01;;;;;;;13.20;4.90;;;;;;;18.55;48.37;100882.84;124763;1099;102806;-76
2022/09/02 05:12:36;;;;;;;14.97;4.87;;;;;;;18.52;49.09;100883.69;124794;1098;102713;-78
2022/09/02 05:15:11;;;;;;;16.20;4.75;;;;;;;18.49;48.77;100883.66;124710;1099;104373;-76
2022/09/02 05:17:45;;;;;;;16.70;4.50;;;;;;;18.49;48.99;100884.55;124747;1099;104226;-76
2022/09/02 05:20:17;;;;;;;16.40;4.47;;;;;;;18.50;48.98;100891.66;124790;1099;104801;-76
2022/09/02 05:22:50;;;;;;;12.67;4.87;;;;;;;18.51;49.17;100895.19;124757;1098;102907;-77
2022/09/02 05:25:22;;;;;;;13.13;4.80;;;;;;;18.50;49.05;100899.62;124830;1099;101909;-78
2022/09/02 05:27:55;;;;;;;12.00;4.20;;;;;;;18.49;49.18;100897.83;124335;1099;105431;-78
2022/09/02 05:30:28;;;;;;;20.52;5.10;;;;;;;18.49;49.31;100895.17;124414;1099;104185;-79
2022/09/02 05:33:01;;;;;;;15.80;4.80;;;;;;;18.50;49.51;100893.43;124378;1099;104198;-78
2022/09/02 05:35:33;;;;;;;15.33;4.90;;;;;;;18.52;49.40;100889.00;124871;1098;104235;-79
2022/09/02 05:38:05;;;;;;;19.00;4.93;;;;;;;18.52;49.73;100888.13;124887;1098;104177;-78
2022/09/02 05:40:38;;;;;;;26.43;5.73;;;;;;;18.55;50.13;100888.16;124429;1099;104278;-79
2022/09/02 05:43:10;;;;;;;12.30;4.20;;;;;;;18.54;49.88;100887.24;124425;1099;104156;-78
2022/09/02 05:45:42;;;;;;;14.20;4.47;;;;;;;18.54;50.16;100881.92;124770;1099;104273;-79
2022/09/02 05:51:09;;;;;;;19.53;4.97;;;;;;;18.43;50.99;100883.61;124708;1099;104243;-78
2022/09/02 05:53:52;;;;;;;13.03;4.53;;;;;;;18.37;51.41;100878.23;124881;1098;104156;-78
2022/09/02 05:56:26;;;;;;;16.50;4.13;;;;;;;18.32;52.19;100884.41;124827;1099;104207;-77
2022/09/02 05:58:57;;;;;;;;;;;;;;;18.19;52.28;100876.30;124839;1099;104278;-78
2022/09/02 06:01:35;;;;;;;15.97;4.60;;;;;;;18.24;52.38;100888.73;124875;1101;103265;-81
2022/09/02 06:04:08;;;;;;;14.07;5.43;;;;;;;18.20;52.76;100884.28;124773;1099;104405;-79
2022/09/02 06:06:42;;;;;;;12.83;4.73;;;;;;;18.24;52.81;100886.08;124912;1099;104319;-79
2022/09/02 06:09:18;;;;;;;12.30;5.00;;;;;;;18.18;53.09;100888.66;124865;1099;102266;-79
2022/09/02 06:12:02;;;;;;;12.80;4.73;;;;;;;18.11;53.21;100892.15;124899;1099;104144;-79
2022/09/02 06:14:38;;;;;;;9.50;4.17;;;;;;;18.07;53.86;100892.98;125656;1099;104250;-81
2022/09/02 06:17:14;;;;;;;15.83;5.40;;;;;;;18.10;54.06;100893.01;125630;1099;102797;-79
2022/09/02 06:19:52;;;;;;;13.40;4.70;;;;;;;18.15;54.04;100896.59;124789;1099;103239;-79
2022/09/02 06:22:32;;;;;;;14.17;5.60;;;;;;;18.22;54.58;100887.83;124899;1099;102526;-78
2022/09/02 06:25:04;;;;;;;11.17;4.60;;;;;;;18.25;54.62;100887.86;124823;1098;102239;-77
2022/09/02 06:27:38;;;;;;;10.43;4.30;;;;;;;18.31;54.53;100887.93;124893;1099;102587;-78
2022/09/02 06:30:14;;;;;;;10.00;3.90;;;;;;;18.33;54.55;100890.60;124758;1099;104356;-80
2022/09/02 06:32:50;;;;;;;10.80;4.33;;;;;;;18.37;54.61;100891.52;124917;1098;103055;-79
2022/09/02 06:35:24;;;;;;;11.60;4.20;;;;;;;18.40;54.60;100894.20;125866;1099;102061;-78
2022/09/02 06:38:00;;;;;;;7.83;4.23;;;;;;;18.44;55.12;100893.37;124784;1099;102838;-78
2022/09/02 06:40:56;;;;;;;9.47;4.37;;;;;;;18.48;54.58;100889.84;124800;1099;104208;-78
2022/09/02 06:43:38;;;;;;;9.50;4.23;;;;;;;18.54;54.68;100892.56;124785;1099;102843;-77
2022/09/02 06:46:24;;;;;;;10.17;4.13;;;;;;;18.54;54.68;100900.53;124791;1099;102004;-78
2022/09/02 06:49:07;;;;;;;9.80;4.50;;;;;;;18.57;54.64;100899.68;125481;1098;104307;-77
2022/09/02 06:51:45;;;;;;;13.13;4.50;;;;;;;18.67;54.64;100905.09;124810;1099;104210;-79
2022/09/02 06:54:24;;;;;;;10.30;4.40;;;;;;;18.81;55.17;100907.87;124780;1098;104977;-80
2022/09/02 06:57:07;;;;;;;9.43;4.70;;;;;;;18.91;54.51;100907.98;125665;1099;103933;-78
2022/09/02 06:59:45;;;;;;;11.00;4.83;;;;;;;19.02;54.81;100911.61;124848;1099;104265;-79
2022/09/02 07:02:21;;;;;;;11.13;4.27;;;;;;;19.06;54.84;100913.42;124821;1099;104207;-79
2022/09/02 07:05:13;;;;;;;17.10;4.67;;;;;;;19.11;55.16;100910.80;125649;1099;104153;-80
2022/09/02 07:07:48;;;;;;;10.20;4.17;;;;;;;19.19;54.97;100906.41;125693;1098;104208;-79
2022/09/02 07:10:20;;;;;;;11.90;4.87;;;;;;;19.15;54.90;100917.90;125629;1099;104242;-80
2022/09/02 07:12:56;;;;;;;9.60;4.43;;;;;;;19.07;55.00;100912.52;125667;1099;104188;-79
2022/09/02 07:15:31;;;;;;;10.70;4.53;;;;;;;19.01;54.66;100918.70;125649;1099;102915;-79
2022/09/02 07:18:04;;;;;;;11.57;4.47;;;;;;;18.95;54.77;100910.68;125676;1099;104219;-80
2022/09/02 07:20:40;;;;;;;9.23;4.17;;;;;;;18.99;55.06;100917.78;124825;1099;104275;-81
2022/09/02 07:23:13;;;;;;;11.33;4.70;;;;;;;18.99;55.36;100915.13;125709;1099;104373;-81
2022/09/02 07:25:48;;;;;;;12.40;5.20;;;;;;;18.96;55.13;100920.41;125698;1099;104213;-81
2022/09/02 07:28:23;;;;;;;13.67;4.40;;;;;;;18.91;55.12;100923.94;125621;1099;104275;-81
2022/09/02 07:31:01;;;;;;;15.23;4.63;;;;;;;18.92;55.47;100923.95;125583;1099;104223;-79
2022/09/02 07:33:37;;;;;;;13.67;4.40;;;;;;;18.97;55.37;100923.98;124899;1099;104254;-79
2022/09/02 07:36:20;;;;;;;14.37;4.83;;;;;;;18.99;55.51;100923.10;125073;1099;104232;-80
2022/09/02 07:39:22;;;;;;;13.43;4.43;;;;;;;19.04;55.51;100920.48;125644;1098;104261;-80
2022/09/02 07:42:13;;;;;;;17.10;4.97;;;;;;;19.06;55.41;100931.13;124935;1099;117756;-80
2022/09/02 07:48:00;;;;;;;19.47;5.57;;;;;;;19.06;55.78;100924.06;125987;1099;104319;-81
2022/09/02 07:50:34;;;;;;;19.27;5.33;;;;;;;19.07;55.77;100924.94;125050;1099;104997;-81
2022/09/02 07:53:14;;;;;;;22.90;5.40;;;;;;;19.06;55.50;100933.79;124868;1099;102791;-80
2022/09/02 07:56:08;;;;;;;15.33;5.20;;;;;;;19.04;55.72;100933.78;124912;1099;104192;-81
2022/09/02 07:58:59;;;;;;;16.67;4.97;;;;;;;19.02;56.07;100941.74;125935;1099;102867;-81
2022/09/02 08:02:06;;;;;;;15.83;5.07;;;;;;;19.00;56.01;100935.53;124990;1099;104664;-78
2022/09/02 08:04:50;;;;;;;15.17;4.87;;;;;;;19.03;56.14;100934.67;126233;1098;102054;-81
2022/09/02 08:07:26;;;;;;;14.03;4.83;;;;;;;19.06;55.99;100939.11;125618;1099;104137;-81
2022/09/02 08:10:31;;;;;;;15.53;5.40;;;;;;;19.11;56.41;100932.08;124998;1099;104883;-80
2022/09/02 08:13:19;;;;;;;16.00;5.13;;;;;;;19.15;56.25;100923.22;124845;1099;109466;-81
2022/09/02 08:16:25;;;;;;;14.33;5.15;;;;;;;19.23;56.28;100926.84;124894;1099;104259;-80
2022/09/02 08:19:20;;;;;;;15.67;4.77;;;;;;;19.25;56.07;100924.20;125654;1097;102284;-80
2022/09/02 08:22:02;;;;;;;16.90;5.87;;;;;;;19.24;56.47;100917.09;124879;1099;102744;-80
2022/09/02 08:24:36;;;;;;;14.40;4.83;;;;;;;19.24;56.55;100923.28;124880;1099;102112;-79
2022/09/02 08:27:10;;;;;;;12.87;5.07;;;;;;;19.28;56.73;100925.09;124887;1099;102416;-79
2022/09/02 08:29:43;;;;;;;19.53;5.00;;;;;;;19.32;56.05;100921.59;125934;1098;104216;-79
2022/09/02 08:32:22;;;;;;;16.30;5.33;;;;;;;19.39;56.39;100927.83;124891;1099;104230;-79
2022/09/02 08:35:03;;;;;;;14.10;5.17;;;;;;;19.46;56.52;100920.77;124895;1099;102466;-81
2022/09/02 08:38:00;;;;;;;15.90;5.17;;;;;;;19.52;57.02;100923.47;124937;1099;104864;-80
2022/09/02 08:40:38;;;;;;;15.13;5.20;;;;;;;19.62;57.02;100924.39;125038;1099;104150;-80
2022/09/02 08:43:30;;;;;;;14.10;4.73;;;;;;;19.70;56.32;100926.23;124943;1099;102790;-80
2022/09/02 08:46:17;;;;;;;;;;;;;;;19.78;56.62;100926.30;125350;1098;104163;-79
2022/09/02 08:49:00;;;;;;;15.17;4.40;;;;;;;19.95;57.21;100921.05;126319;1099;101890;-80
2022/09/02 08:51:44;;;;;;;14.53;4.83;;;;;;;20.17;57.37;100915.80;124836;1097;104205;-80
2022/09/02 08:54:25;;;;;;;15.03;4.13;;;;;;;20.38;56.15;100914.94;124896;1099;107036;-80
2022/09/02 08:56:58;;;;;;;17.93;4.97;;;;;;;20.60;56.42;100908.77;124858;1099;102432;-79
2022/09/02 08:59:43;;;;;;;9.73;4.30;;;;;;;20.81;55.71;100907.02;124949;1099;104826;-80
2022/09/02 09:02:25;;;;;;;15.37;4.50;;;;;;;20.98;56.11;100905.23;124956;1099;104254;-80
2022/09/02 09:05:18;;;;;;;14.27;4.40;;;;;;;21.22;55.90;100902.54;124824;1099;104232;-79
2022/09/02 09:08:19;;;;;;;10.87;4.50;;;;;;;21.39;55.45;100905.17;124544;1099;101959;-80
2022/09/02 09:11:02;;;;;;;11.60;4.83;;;;;;;21.49;53.92;100902.52;124469;1099;104214;-80
2022/09/02 09:14:03;;;;;;;15.17;4.37;;;;;;;21.50;53.65;100909.64;125047;1099;104672;-80
2022/09/02 09:16:45;;;;;;;25.37;5.13;;;;;;;21.67;53.38;100912.23;124956;1099;104226;-80
2022/09/02 09:19:25;;;;;;;10.10;4.23;;;;;;;21.70;51.97;100903.33;124877;1099;104220;-80
2022/09/02 09:22:02;;;;;;;8.93;4.43;;;;;;;21.78;52.44;100897.95;126096;1098;102011;-80
2022/09/02 09:24:41;;;;;;;9.23;4.30;;;;;;;21.83;51.83;100901.48;125652;1099;104233;-79
2022/09/02 09:27:17;;;;;;;11.50;4.45;;;;;;;21.93;52.39;100899.69;124805;1099;104269;-78
2022/09/02 09:29:53;;;;;;;12.17;4.30;;;;;;;21.99;51.41;100902.33;124898;1099;104232;-79
2022/09/02 09:32:28;;;;;;;15.37;4.40;;;;;;;22.03;51.32;100894.30;124829;1099;104233;-78
2022/09/02 09:35:05;;;;;;;14.77;4.77;;;;;;;22.08;50.04;100892.47;124846;1097;106950;-77
2022/09/02 09:37:41;;;;;;;12.87;4.13;;;;;;;22.09;49.87;100882.66;124852;1099;104407;-77
2022/09/02 09:40:29;;;;;;;12.03;4.43;;;;;;;22.18;49.50;100884.41;124811;1098;104229;-78
2022/09/02 09:43:18;;;;;;;10.77;4.53;;;;;;;22.28;49.27;100878.08;127007;1098;101953;-79
2022/09/02 09:46:00;;;;;;;10.47;4.00;;;;;;;22.29;47.11;100876.32;127306;1099;102291;-79
2022/09/02 09:48:51;;;;;;;9.37;4.37;;;;;;;22.19;46.66;100884.39;127453;1097;102123;-80
2022/09/02 09:51:56;;;;;;;9.57;4.00;;;;;;;22.22;46.93;100881.70;126954;1099;101847;-79
2022/09/02 09:54:31;;;;;;;12.83;4.20;;;;;;;22.25;46.55;100884.36;125864;1096;101914;-79
2022/09/02 09:57:20;;;;;;;9.27;4.00;;;;;;;22.30;46.55;100880.74;124888;1099;102972;-79
2022/09/02 09:59:55;;;;;;;7.80;3.83;;;;;;;22.27;46.75;100889.69;124827;1099;104616;-79
2022/09/02 10:02:38;;;;;;;13.00;4.20;;;;;;;22.27;46.75;100887.02;124887;1099;104498;-79
2022/09/02 10:05:30;;;;;;;12.93;4.00;;;;;;;22.25;45.35;100891.47;124900;1097;104116;-80
2022/09/02 10:08:04;;;;;;;18.33;4.60;;;;;;;22.31;45.54;100894.13;125395;1097;103199;-80
2022/09/02 10:10:36;;;;;;;7.80;3.80;;;;;;;22.31;45.51;100893.25;125261;1099;102149;-81
2022/09/02 10:13:25;;;;;;;9.97;3.90;;;;;;;22.33;45.44;100892.36;125270;1098;104234;-80
2022/09/02 10:16:13;;;;;;;10.80;4.57;;;;;;;22.34;44.85;100904.80;125073;1099;106936;-80
2022/09/02 10:18:53;;;;;;;11.47;3.90;;;;;;;22.34;44.20;100894.11;125683;1099;102470;-81
2022/09/02 10:21:43;;;;;;;9.07;3.50;;;;;;;22.26;43.69;100894.13;125710;1098;104617;-79
2022/09/02 10:24:37;;;;;;;7.93;3.50;;;;;;;22.17;43.05;100894.19;124862;1099;103434;-80
2022/09/02 10:27:14;;;;;;;9.80;3.73;;;;;;;22.20;42.96;100891.49;124798;1099;104575;-79
2022/09/02 10:29:59;;;;;;;10.03;3.63;;;;;;;22.20;43.18;100885.27;124837;1099;104258;-79
2022/09/02 10:32:46;;;;;;;14.80;4.10;;;;;;;22.07;42.33;100895.15;125104;1099;104219;-80
2022/09/02 10:35:26;;;;;;;7.13;3.90;;;;;;;22.01;42.18;100897.86;125268;1099;104182;-81
2022/09/02 10:38:15;;;;;;;9.93;4.00;;;;;;;21.97;42.74;100898.75;125004;1099;104240;-80
2022/09/02 10:40:55;;;;;;;7.33;3.53;;;;;;;21.92;42.62;100897.90;125123;1099;103771;-80
2022/09/02 10:43:46;;;;;;;7.30;3.60;;;;;;;21.80;41.68;100899.73;125209;1099;104345;-78
2022/09/02 10:46:23;;;;;;;9.53;4.03;;;;;;;21.70;41.43;100896.20;125161;1099;103225;-79
2022/09/02 10:49:05;;;;;;;10.43;3.57;;;;;;;21.62;41.50;100903.36;124843;1099;105069;-78
2022/09/02 10:51:48;;;;;;;8.30;3.70;;;;;;;21.46;39.42;100901.61;124898;1099;104181;-78
2022/09/02 10:54:42;;;;;;;10.90;3.50;;;;;;;21.32;40.76;100905.19;124853;1099;102232;-78
2022/09/02 10:57:21;;;;;;;10.83;4.07;;;;;;;21.33;41.72;100906.06;124878;1097;107910;-78
2022/09/02 11:00:03;;;;;;;8.23;3.77;;;;;;;21.26;41.12;100905.20;124822;1098;104255;-78
2022/09/02 11:02:41;;;;;;;8.37;3.77;;;;;;;21.24;40.72;100896.32;124954;1099;104160;-79
2022/09/02 11:05:18;;;;;;;8.90;3.90;;;;;;;21.28;41.82;100903.41;125937;1098;104226;-80
2022/09/02 11:07:56;;;;;;;8.53;3.53;;;;;;;21.22;40.24;100907.87;124961;1099;119328;-79
2022/09/02 11:10:38;;;;;;;10.40;3.63;;;;;;;21.27;41.62;100906.99;124858;1099;102345;-78
2022/09/02 11:13:23;;;;;;;9.67;3.70;;;;;;;21.31;40.94;100908.73;124937;1098;104207;-79
2022/09/02 11:16:05;;;;;;;7.90;3.67;;;;;;;21.30;40.02;100895.39;124945;1099;104223;-80
2022/09/02 11:18:49;;;;;;;8.73;3.70;;;;;;;21.30;40.22;100898.06;124896;1099;102305;-81
2022/09/02 11:21:45;;;;;;;8.78;3.52;;;;;;;21.27;39.03;100901.66;124870;1099;104204;-79
2022/09/02 11:24:30;;;;;;;9.28;3.52;;;;;;;21.31;39.16;100897.19;124896;1099;104184;-80
2022/09/02 11:27:10;;;;;;;10.80;3.57;;;;;;;21.31;39.18;100892.72;124901;1099;104204;-79
2022/09/02 11:30:01;;;;;;;9.80;4.13;;;;;;;21.35;40.23;100891.84;124915;1099;104179;-79
2022/09/02 11:32:42;;;;;;;8.60;3.53;;;;;;;21.35;39.65;100890.96;124889;1099;104866;-79
2022/09/02 11:38:33;;;;;;;7.10;3.43;;;;;;;21.34;39.08;100878.50;124850;1099;107433;-79
2022/09/02 11:41:26;;;;;;;8.37;3.63;;;;;;;21.38;38.86;100882.95;124409;1102;102874;-80
2022/09/02 11:44:05;;;;;;;;;;;;;;;21.32;38.42;100872.28;124866;1099;104676;-80
2022/09/02 11:47:08;;;;;;;10.77;4.20;;;;;;;21.33;38.86;100872.28;125051;1099;102441;-79
2022/09/02 11:50:37;;;;;;;9.80;3.93;;;;;;;21.31;38.69;100865.16;124902;1099;103563;-80
2022/09/02 11:53:25;;;;;;;13.37;4.63;;;;;;;21.30;39.09;100863.38;124285;1102;104399;-81
2022/09/02 11:56:03;;;;;;;11.03;4.57;;;;;;;21.34;39.15;100862.48;124348;1102;104328;-81
2022/09/02 11:58:42;;;;;;;13.43;4.57;;;;;;;21.36;39.32;100842.91;124722;1099;104153;-80
2022/09/02 12:01:45;;;;;;;11.65;4.10;;;;;;;21.37;39.75;100842.00;125678;1099;104322;-79
2022/09/02 12:04:25;;;;;;;;;;;;;;;21.40;36.78;100840.23;124963;1099;103559;-80